sensor_id;sensor_type;location;lat;lon;timestamp;temperature;humidity
5940;DHT22;2995;-31.998;115.906;2024-01-15T00:01:13;30.00;99.90
5940;DHT22;2995;-31.998;115.906;2024-01-15T00:03:44;30.20;99.90
5940;DHT22;2995;-31.998;115.906;2024-01-15T00:06:16;30.50;99.90
5940;DHT22;2995;-31.998;115.906;2024-01-15T00:08:47;30.70;99.90
5940;DHT22;2995;-31.998;115.906;2024-01-15T00:11:18;30.90;99.90
5940;DHT22;2995;-31.998;115.906;2024-01-15T00:13:52;31.20;99.90
5940;DHT22;2995;-31.998;115.906;2024-01-15T00:16:23;31.40;99.90
5940;DHT22;2995;-31.998;115.906;2024-01-15T00:18:54;31.50;99.90
5940;DHT22;2995;-31.998;115.906;2024-01-15T00:21:26;31.30;99.90
5940;DHT22;2995;-31.998;115.906;2024-01-15T00:23:57;31.60;99.90
5940;DHT22;2995;-31.998;115.906;2024-01-15T00:26:29;32.00;99.90
5940;DHT22;2995;-31.998;115.906;2024-01-15T00:29:02;32.30;99.90
5940;DHT22;2995;-31.998;115.906;2024-01-15T00:31:33;32.30;99.90
5940;DHT22;2995;-31.998;115.906;2024-01-15T00:34:05;32.30;99.90
5940;DHT22;2995;-31.998;115.906;2024-01-15T00:36:36;32.60;99.90
5940;DHT22;2995;-31.998;115.906;2024-01-15T00:39:07;32.40;99.90
5940;DHT22;2995;-31.998;115.906;2024-01-15T00:41:39;32.70;99.90
5940;DHT22;2995;-31.998;115.906;2024-01-15T00:44:12;32.70;99.90
5940;DHT22;2995;-31.998;115.906;2024-01-15T00:46:45;32.70;99.90
5940;DHT22;2995;-31.998;115.906;2024-01-15T00:49:16;32.70;99.90
5940;DHT22;2995;-31.998;115.906;2024-01-15T00:51:48;32.70;99.90
5940;DHT22;2995;-31.998;115.906;2024-01-15T00:54:19;32.90;99.90
5940;DHT22;2995;-31.998;115.906;2024-01-15T00:56:51;33.10;99.90
5940;DHT22;2995;-31.998;115.906;2024-01-15T00:59:25;33.10;99.90
5940;DHT22;2995;-31.998;115.906;2024-01-15T01:01:56;33.00;99.90
5940;DHT22;2995;-31.998;115.906;2024-01-15T01:04:27;33.20;99.90
5940;DHT22;2995;-31.998;115.906;2024-01-15T01:06:58;33.30;99.90
5940;DHT22;2995;-31.998;115.906;2024-01-15T01:09:30;33.50;99.90
5940;DHT22;2995;-31.998;115.906;2024-01-15T01:12:01;33.60;99.90
5940;DHT22;2995;-31.998;115.906;2024-01-15T01:14:34;33.40;99.90
5940;DHT22;2995;-31.998;115.906;2024-01-15T01:17:05;33.60;99.90
5940;DHT22;2995;-31.998;115.906;2024-01-15T01:19:36;33.70;99.90
5940;DHT22;2995;-31.998;115.906;2024-01-15T01:22:08;33.80;99.90
5940;DHT22;2995;-31.998;115.906;2024-01-15T01:24:39;33.80;99.90
5940;DHT22;2995;-31.998;115.906;2024-01-15T01:27:10;34.00;99.90
5940;DHT22;2995;-31.998;115.906;2024-01-15T01:29:43;34.30;99.90
5940;DHT22;2995;-31.998;115.906;2024-01-15T01:32:15;34.20;99.90
5940;DHT22;2995;-31.998;115.906;2024-01-15T01:34:46;34.20;99.90
5940;DHT22;2995;-31.998;115.906;2024-01-15T01:37:17;34.30;99.90
5940;DHT22;2995;-31.998;115.906;2024-01-15T01:39:49;34.20;99.90
5940;DHT22;2995;-31.998;115.906;2024-01-15T01:42:20;34.20;99.90
5940;DHT22;2995;-31.998;115.906;2024-01-15T01:44:53;34.20;99.90
5940;DHT22;2995;-31.998;115.906;2024-01-15T01:47:24;34.20;99.90
5940;DHT22;2995;-31.998;115.906;2024-01-15T01:49:57;34.30;99.90
5940;DHT22;2995;-31.998;115.906;2024-01-15T01:52:28;34.60;99.90
5940;DHT22;2995;-31.998;115.906;2024-01-15T01:55:00;34.80;99.90
5940;DHT22;2995;-31.998;115.906;2024-01-15T01:57:34;34.50;99.90
5940;DHT22;2995;-31.998;115.906;2024-01-15T02:00:09;34.80;99.90
5940;DHT22;2995;-31.998;115.906;2024-01-15T02:02:40;34.90;99.90
5940;DHT22;2995;-31.998;115.906;2024-01-15T02:05:13;35.10;99.90
5940;DHT22;2995;-31.998;115.906;2024-01-15T02:07:45;35.00;99.90
5940;DHT22;2995;-31.998;115.906;2024-01-15T02:10:16;35.10;99.90
5940;DHT22;2995;-31.998;115.906;2024-01-15T02:12:48;35.30;99.90
5940;DHT22;2995;-31.998;115.906;2024-01-15T02:15:21;35.40;99.90
5940;DHT22;2995;-31.998;115.906;2024-01-15T02:18:01;35.50;99.90
5940;DHT22;2995;-31.998;115.906;2024-01-15T02:20:35;35.40;99.90
5940;DHT22;2995;-31.998;115.906;2024-01-15T02:23:11;35.50;99.90
5940;DHT22;2995;-31.998;115.906;2024-01-15T02:25:44;35.70;99.90
5940;DHT22;2995;-31.998;115.906;2024-01-15T02:28:16;35.80;99.90
5940;DHT22;2995;-31.998;115.906;2024-01-15T02:30:48;35.70;99.90
5940;DHT22;2995;-31.998;115.906;2024-01-15T02:33:19;36.00;99.90
5940;DHT22;2995;-31.998;115.906;2024-01-15T02:35:50;36.10;99.90
5940;DHT22;2995;-31.998;115.906;2024-01-15T02:38:26;36.10;99.90
5940;DHT22;2995;-31.998;115.906;2024-01-15T02:40:57;36.10;99.90
5940;DHT22;2995;-31.998;115.906;2024-01-15T02:43:29;36.30;99.90
5940;DHT22;2995;-31.998;115.906;2024-01-15T02:46:01;36.20;99.90
5940;DHT22;2995;-31.998;115.906;2024-01-15T02:48:32;36.50;99.90
5940;DHT22;2995;-31.998;115.906;2024-01-15T02:51:04;36.50;99.90
5940;DHT22;2995;-31.998;115.906;2024-01-15T02:53:39;36.40;99.90
5940;DHT22;2995;-31.998;115.906;2024-01-15T02:56:10;36.10;99.90
5940;DHT22;2995;-31.998;115.906;2024-01-15T02:58:41;36.30;99.90
5940;DHT22;2995;-31.998;115.906;2024-01-15T03:01:12;36.70;99.90
5940;DHT22;2995;-31.998;115.906;2024-01-15T03:03:43;37.00;99.90
5940;DHT22;2995;-31.998;115.906;2024-01-15T03:06:15;37.00;99.90
5940;DHT22;2995;-31.998;115.906;2024-01-15T03:08:48;37.10;99.90
5940;DHT22;2995;-31.998;115.906;2024-01-15T03:11:19;37.10;99.90
5940;DHT22;2995;-31.998;115.906;2024-01-15T03:13:51;37.40;99.90
5940;DHT22;2995;-31.998;115.906;2024-01-15T03:16:22;37.30;99.90
5940;DHT22;2995;-31.998;115.906;2024-01-15T03:18:53;37.70;99.90
5940;DHT22;2995;-31.998;115.906;2024-01-15T03:21:25;37.60;99.90
5940;DHT22;2995;-31.998;115.906;2024-01-15T03:23:58;37.70;99.90
5940;DHT22;2995;-31.998;115.906;2024-01-15T03:26:30;37.70;99.90
5940;DHT22;2995;-31.998;115.906;2024-01-15T03:29:01;37.60;99.90
5940;DHT22;2995;-31.998;115.906;2024-01-15T03:31:33;37.30;99.90
5940;DHT22;2995;-31.998;115.906;2024-01-15T03:34:04;37.40;99.90
5940;DHT22;2995;-31.998;115.906;2024-01-15T03:36:35;37.30;99.90
5940;DHT22;2995;-31.998;115.906;2024-01-15T03:39:08;37.10;99.90
5940;DHT22;2995;-31.998;115.906;2024-01-15T03:41:39;37.40;99.90
5940;DHT22;2995;-31.998;115.906;2024-01-15T03:44:11;37.60;99.90
5940;DHT22;2995;-31.998;115.906;2024-01-15T03:46:42;37.30;99.90
5940;DHT22;2995;-31.998;115.906;2024-01-15T03:49:14;37.10;99.90
5940;DHT22;2995;-31.998;115.906;2024-01-15T03:51:45;37.10;99.90
5940;DHT22;2995;-31.998;115.906;2024-01-15T03:54:18;37.10;99.90
5940;DHT22;2995;-31.998;115.906;2024-01-15T03:56:50;37.10;99.90
5940;DHT22;2995;-31.998;115.906;2024-01-15T03:59:21;36.80;99.90
5940;DHT22;2995;-31.998;115.906;2024-01-15T04:01:52;36.10;99.90
5940;DHT22;2995;-31.998;115.906;2024-01-15T04:04:23;35.80;99.90
5940;DHT22;2995;-31.998;115.906;2024-01-15T04:06:55;35.90;99.90
5940;DHT22;2995;-31.998;115.906;2024-01-15T04:09:28;36.00;99.90
5940;DHT22;2995;-31.998;115.906;2024-01-15T04:11:59;36.00;99.90
5940;DHT22;2995;-31.998;115.906;2024-01-15T04:14:30;35.90;99.90
5940;DHT22;2995;-31.998;115.906;2024-01-15T04:17:02;35.80;99.90
5940;DHT22;2995;-31.998;115.906;2024-01-15T04:19:34;35.50;99.90
5940;DHT22;2995;-31.998;115.906;2024-01-15T04:22:06;35.20;99.90
5940;DHT22;2995;-31.998;115.906;2024-01-15T04:24:39;35.60;99.90
5940;DHT22;2995;-31.998;115.906;2024-01-15T04:27:10;35.80;99.90
5940;DHT22;2995;-31.998;115.906;2024-01-15T04:29:41;35.90;99.90
5940;DHT22;2995;-31.998;115.906;2024-01-15T04:32:13;36.00;99.90
5940;DHT22;2995;-31.998;115.906;2024-01-15T04:34:44;35.80;99.90
5940;DHT22;2995;-31.998;115.906;2024-01-15T04:37:15;35.40;99.90
5940;DHT22;2995;-31.998;115.906;2024-01-15T04:39:49;35.40;99.90
5940;DHT22;2995;-31.998;115.906;2024-01-15T04:42:23;34.90;99.90
5940;DHT22;2995;-31.998;115.906;2024-01-15T04:44:54;34.80;99.90
5940;DHT22;2995;-31.998;115.906;2024-01-15T04:47:25;34.80;99.90
5940;DHT22;2995;-31.998;115.906;2024-01-15T04:49:56;34.60;99.90
5940;DHT22;2995;-31.998;115.906;2024-01-15T04:52:28;34.80;99.90
5940;DHT22;2995;-31.998;115.906;2024-01-15T04:55:01;34.80;99.90
5940;DHT22;2995;-31.998;115.906;2024-01-15T04:57:32;34.80;99.90
5940;DHT22;2995;-31.998;115.906;2024-01-15T05:00:03;34.80;99.90
5940;DHT22;2995;-31.998;115.906;2024-01-15T05:02:35;34.40;99.90
5940;DHT22;2995;-31.998;115.906;2024-01-15T05:05:07;34.60;99.90
5940;DHT22;2995;-31.998;115.906;2024-01-15T05:07:38;34.80;99.90
5940;DHT22;2995;-31.998;115.906;2024-01-15T05:10:12;34.60;99.90
5940;DHT22;2995;-31.998;115.906;2024-01-15T05:12:43;34.50;99.90
5940;DHT22;2995;-31.998;115.906;2024-01-15T05:15:14;34.20;99.90
5940;DHT22;2995;-31.998;115.906;2024-01-15T05:17:45;34.30;99.90
5940;DHT22;2995;-31.998;115.906;2024-01-15T05:20:17;34.40;99.90
5940;DHT22;2995;-31.998;115.906;2024-01-15T05:22:48;34.60;99.90
5940;DHT22;2995;-31.998;115.906;2024-01-15T05:25:21;34.60;99.90
5940;DHT22;2995;-31.998;115.906;2024-01-15T05:27:53;34.40;99.90
5940;DHT22;2995;-31.998;115.906;2024-01-15T05:30:24;34.50;99.90
5940;DHT22;2995;-31.998;115.906;2024-01-15T05:32:55;34.30;99.90
5940;DHT22;2995;-31.998;115.906;2024-01-15T05:35:28;34.20;99.90
5940;DHT22;2995;-31.998;115.906;2024-01-15T05:37:59;34.40;99.90
5940;DHT22;2995;-31.998;115.906;2024-01-15T05:40:32;34.30;99.90
5940;DHT22;2995;-31.998;115.906;2024-01-15T05:43:04;33.70;99.90
5940;DHT22;2995;-31.998;115.906;2024-01-15T05:45:37;34.00;99.90
5940;DHT22;2995;-31.998;115.906;2024-01-15T05:48:09;34.20;99.90
5940;DHT22;2995;-31.998;115.906;2024-01-15T05:50:41;33.80;99.90
5940;DHT22;2995;-31.998;115.906;2024-01-15T05:53:12;33.50;99.90
5940;DHT22;2995;-31.998;115.906;2024-01-15T05:55:45;33.70;99.90
5940;DHT22;2995;-31.998;115.906;2024-01-15T05:58:17;33.70;99.90
5940;DHT22;2995;-31.998;115.906;2024-01-15T06:00:48;33.50;99.90
5940;DHT22;2995;-31.998;115.906;2024-01-15T06:03:19;33.00;99.90
5940;DHT22;2995;-31.998;115.906;2024-01-15T06:05:50;33.00;99.90
5940;DHT22;2995;-31.998;115.906;2024-01-15T06:08:21;33.30;99.90
5940;DHT22;2995;-31.998;115.906;2024-01-15T06:10:57;33.60;99.90
5940;DHT22;2995;-31.998;115.906;2024-01-15T06:13:28;33.20;99.90
5940;DHT22;2995;-31.998;115.906;2024-01-15T06:15:59;33.00;99.90
5940;DHT22;2995;-31.998;115.906;2024-01-15T06:18:31;32.80;99.90
5940;DHT22;2995;-31.998;115.906;2024-01-15T06:21:02;32.50;99.90
5940;DHT22;2995;-31.998;115.906;2024-01-15T06:23:33;32.60;99.90
5940;DHT22;2995;-31.998;115.906;2024-01-15T06:26:06;32.40;99.90
5940;DHT22;2995;-31.998;115.906;2024-01-15T06:28:38;32.40;99.90
5940;DHT22;2995;-31.998;115.906;2024-01-15T06:31:09;32.50;99.90
5940;DHT22;2995;-31.998;115.906;2024-01-15T06:33:40;32.80;99.90
5940;DHT22;2995;-31.998;115.906;2024-01-15T06:36:13;32.90;99.90
5940;DHT22;2995;-31.998;115.906;2024-01-15T06:38:45;32.60;99.90
5940;DHT22;2995;-31.998;115.906;2024-01-15T06:41:18;32.40;99.90
5940;DHT22;2995;-31.998;115.906;2024-01-15T06:43:49;32.30;99.90
5940;DHT22;2995;-31.998;115.906;2024-01-15T06:46:22;32.50;99.90
5940;DHT22;2995;-31.998;115.906;2024-01-15T06:48:53;32.30;99.90
5940;DHT22;2995;-31.998;115.906;2024-01-15T06:51:24;32.00;99.90
5940;DHT22;2995;-31.998;115.906;2024-01-15T06:53:55;32.20;99.90
5940;DHT22;2995;-31.998;115.906;2024-01-15T06:56:29;31.90;99.90
5940;DHT22;2995;-31.998;115.906;2024-01-15T06:59:00;32.10;99.90
5940;DHT22;2995;-31.998;115.906;2024-01-15T07:01:31;31.90;99.90
5940;DHT22;2995;-31.998;115.906;2024-01-15T07:04:03;32.00;99.90
5940;DHT22;2995;-31.998;115.906;2024-01-15T07:06:34;32.20;99.90
5940;DHT22;2995;-31.998;115.906;2024-01-15T07:09:05;32.10;99.90
5940;DHT22;2995;-31.998;115.906;2024-01-15T07:11:41;31.90;99.90
5940;DHT22;2995;-31.998;115.906;2024-01-15T07:14:15;32.10;99.90
5940;DHT22;2995;-31.998;115.906;2024-01-15T07:16:46;32.10;99.90
5940;DHT22;2995;-31.998;115.906;2024-01-15T07:19:17;31.90;99.90
5940;DHT22;2995;-31.998;115.906;2024-01-15T07:21:49;32.10;99.90
5940;DHT22;2995;-31.998;115.906;2024-01-15T07:24:20;32.40;99.90
5940;DHT22;2995;-31.998;115.906;2024-01-15T07:26:53;32.10;99.90
5940;DHT22;2995;-31.998;115.906;2024-01-15T07:29:24;32.10;99.90
5940;DHT22;2995;-31.998;115.906;2024-01-15T07:31:55;32.10;99.90
5940;DHT22;2995;-31.998;115.906;2024-01-15T07:34:27;32.40;99.90
5940;DHT22;2995;-31.998;115.906;2024-01-15T07:36:58;32.40;99.90
5940;DHT22;2995;-31.998;115.906;2024-01-15T07:39:30;32.40;99.90
5940;DHT22;2995;-31.998;115.906;2024-01-15T07:42:03;32.40;99.90
5940;DHT22;2995;-31.998;115.906;2024-01-15T07:44:34;32.40;99.90
5940;DHT22;2995;-31.998;115.906;2024-01-15T07:47:06;32.40;99.90
5940;DHT22;2995;-31.998;115.906;2024-01-15T07:49:37;32.20;99.90
5940;DHT22;2995;-31.998;115.906;2024-01-15T07:52:08;32.20;99.90
5940;DHT22;2995;-31.998;115.906;2024-01-15T07:54:41;32.10;99.90
5940;DHT22;2995;-31.998;115.906;2024-01-15T07:57:14;32.00;99.90
5940;DHT22;2995;-31.998;115.906;2024-01-15T07:59:45;32.00;99.90
5940;DHT22;2995;-31.998;115.906;2024-01-15T08:02:17;32.10;99.90
5940;DHT22;2995;-31.998;115.906;2024-01-15T08:04:49;32.30;99.90
5940;DHT22;2995;-31.998;115.906;2024-01-15T08:07:20;32.30;99.90
5940;DHT22;2995;-31.998;115.906;2024-01-15T08:09:51;32.40;99.90
5940;DHT22;2995;-31.998;115.906;2024-01-15T08:12:24;32.30;99.90
5940;DHT22;2995;-31.998;115.906;2024-01-15T08:14:56;32.20;99.90
5940;DHT22;2995;-31.998;115.906;2024-01-15T08:17:27;32.20;99.90
5940;DHT22;2995;-31.998;115.906;2024-01-15T08:19:58;32.20;99.90
5940;DHT22;2995;-31.998;115.906;2024-01-15T08:22:30;32.10;99.90
5940;DHT22;2995;-31.998;115.906;2024-01-15T08:25:01;31.90;99.90
5940;DHT22;2995;-31.998;115.906;2024-01-15T08:27:35;31.90;99.90
5940;DHT22;2995;-31.998;115.906;2024-01-15T08:30:07;32.10;99.90
5940;DHT22;2995;-31.998;115.906;2024-01-15T08:32:38;31.90;99.90
5940;DHT22;2995;-31.998;115.906;2024-01-15T08:35:10;31.50;99.90
5940;DHT22;2995;-31.998;115.906;2024-01-15T08:37:42;31.80;99.90
5940;DHT22;2995;-31.998;115.906;2024-01-15T08:40:13;31.70;99.90
5940;DHT22;2995;-31.998;115.906;2024-01-15T08:42:46;31.50;99.90
5940;DHT22;2995;-31.998;115.906;2024-01-15T08:45:17;31.40;99.90
5940;DHT22;2995;-31.998;115.906;2024-01-15T08:47:49;31.40;99.90
5940;DHT22;2995;-31.998;115.906;2024-01-15T08:50:21;31.30;99.90
5940;DHT22;2995;-31.998;115.906;2024-01-15T08:52:52;31.40;99.90
5940;DHT22;2995;-31.998;115.906;2024-01-15T08:55:23;31.20;99.90
5940;DHT22;2995;-31.998;115.906;2024-01-15T08:57:57;31.10;99.90
5940;DHT22;2995;-31.998;115.906;2024-01-15T09:00:28;31.10;99.90
5940;DHT22;2995;-31.998;115.906;2024-01-15T09:02:59;31.10;99.90
5940;DHT22;2995;-31.998;115.906;2024-01-15T09:05:31;31.20;99.90
5940;DHT22;2995;-31.998;115.906;2024-01-15T09:08:02;31.10;99.90
5940;DHT22;2995;-31.998;115.906;2024-01-15T09:10:33;31.20;99.90
5940;DHT22;2995;-31.998;115.906;2024-01-15T09:13:06;31.10;99.90
5940;DHT22;2995;-31.998;115.906;2024-01-15T09:15:38;31.30;99.90
5940;DHT22;2995;-31.998;115.906;2024-01-15T09:18:09;31.20;99.90
5940;DHT22;2995;-31.998;115.906;2024-01-15T09:20:40;31.00;99.90
5940;DHT22;2995;-31.998;115.906;2024-01-15T09:23:11;30.60;99.90
5940;DHT22;2995;-31.998;115.906;2024-01-15T09:25:42;30.60;99.90
5940;DHT22;2995;-31.998;115.906;2024-01-15T09:28:16;30.50;99.90
5940;DHT22;2995;-31.998;115.906;2024-01-15T09:30:47;30.60;99.90
5940;DHT22;2995;-31.998;115.906;2024-01-15T09:33:18;30.70;99.90
5940;DHT22;2995;-31.998;115.906;2024-01-15T09:35:49;30.60;99.90
5940;DHT22;2995;-31.998;115.906;2024-01-15T09:38:21;30.50;99.90
5940;DHT22;2995;-31.998;115.906;2024-01-15T09:40:53;30.50;99.90
5940;DHT22;2995;-31.998;115.906;2024-01-15T09:43:26;30.40;99.90
5940;DHT22;2995;-31.998;115.906;2024-01-15T09:45:58;30.40;99.90
5940;DHT22;2995;-31.998;115.906;2024-01-15T09:48:29;30.20;99.90
5940;DHT22;2995;-31.998;115.906;2024-01-15T09:51:02;30.10;99.90
5940;DHT22;2995;-31.998;115.906;2024-01-15T09:53:34;30.10;99.90
5940;DHT22;2995;-31.998;115.906;2024-01-15T09:56:07;29.80;99.90
5940;DHT22;2995;-31.998;115.906;2024-01-15T09:58:40;29.70;99.90
5940;DHT22;2995;-31.998;115.906;2024-01-15T10:01:12;29.80;99.90
5940;DHT22;2995;-31.998;115.906;2024-01-15T10:03:45;29.80;99.90
5940;DHT22;2995;-31.998;115.906;2024-01-15T10:06:17;30.00;99.90
5940;DHT22;2995;-31.998;115.906;2024-01-15T10:08:50;30.00;99.90
5940;DHT22;2995;-31.998;115.906;2024-01-15T10:11:21;29.80;99.90
5940;DHT22;2995;-31.998;115.906;2024-01-15T10:13:55;29.80;99.90
5940;DHT22;2995;-31.998;115.906;2024-01-15T10:16:26;29.80;99.90
5940;DHT22;2995;-31.998;115.906;2024-01-15T10:18:58;29.80;99.90
5940;DHT22;2995;-31.998;115.906;2024-01-15T10:21:29;29.70;99.90
5940;DHT22;2995;-31.998;115.906;2024-01-15T10:24:03;29.70;99.90
5940;DHT22;2995;-31.998;115.906;2024-01-15T10:26:34;29.70;99.90
5940;DHT22;2995;-31.998;115.906;2024-01-15T10:29:07;29.60;99.90
5940;DHT22;2995;-31.998;115.906;2024-01-15T10:31:39;29.50;99.90
5940;DHT22;2995;-31.998;115.906;2024-01-15T10:34:13;29.50;99.90
5940;DHT22;2995;-31.998;115.906;2024-01-15T10:36:47;29.30;99.90
5940;DHT22;2995;-31.998;115.906;2024-01-15T10:39:23;29.20;99.90
5940;DHT22;2995;-31.998;115.906;2024-01-15T10:41:54;28.90;99.90
5940;DHT22;2995;-31.998;115.906;2024-01-15T10:44:28;28.70;99.90
5940;DHT22;2995;-31.998;115.906;2024-01-15T10:47:00;28.90;99.90
5940;DHT22;2995;-31.998;115.906;2024-01-15T10:49:31;28.90;99.90
5940;DHT22;2995;-31.998;115.906;2024-01-15T10:52:03;28.90;99.90
5940;DHT22;2995;-31.998;115.906;2024-01-15T10:54:35;29.00;99.90
5940;DHT22;2995;-31.998;115.906;2024-01-15T10:57:08;29.00;99.90
5940;DHT22;2995;-31.998;115.906;2024-01-15T10:59:42;29.00;99.90
5940;DHT22;2995;-31.998;115.906;2024-01-15T11:02:13;28.90;99.90
5940;DHT22;2995;-31.998;115.906;2024-01-15T11:04:45;28.80;99.90
5940;DHT22;2995;-31.998;115.906;2024-01-15T11:07:16;28.80;99.90
5940;DHT22;2995;-31.998;115.906;2024-01-15T11:09:47;28.80;99.90
5940;DHT22;2995;-31.998;115.906;2024-01-15T11:12:19;28.70;99.90
5940;DHT22;2995;-31.998;115.906;2024-01-15T11:14:52;28.50;99.90
5940;DHT22;2995;-31.998;115.906;2024-01-15T11:17:58;28.40;99.90
5940;DHT22;2995;-31.998;115.906;2024-01-15T11:20:33;28.40;99.90
5940;DHT22;2995;-31.998;115.906;2024-01-15T11:23:04;28.40;99.90
5940;DHT22;2995;-31.998;115.906;2024-01-15T11:25:37;28.20;99.90
5940;DHT22;2995;-31.998;115.906;2024-01-15T11:28:09;28.00;99.90
5940;DHT22;2995;-31.998;115.906;2024-01-15T11:30:42;27.80;99.90
5940;DHT22;2995;-31.998;115.906;2024-01-15T11:33:33;27.80;99.90
5940;DHT22;2995;-31.998;115.906;2024-01-15T11:36:05;27.70;99.90
5940;DHT22;2995;-31.998;115.906;2024-01-15T11:38:36;27.60;99.90
5940;DHT22;2995;-31.998;115.906;2024-01-15T11:41:15;27.50;99.90
5940;DHT22;2995;-31.998;115.906;2024-01-15T11:43:46;27.50;99.90
5940;DHT22;2995;-31.998;115.906;2024-01-15T11:46:20;27.50;99.90
5940;DHT22;2995;-31.998;115.906;2024-01-15T11:48:57;27.40;99.90
5940;DHT22;2995;-31.998;115.906;2024-01-15T11:51:35;27.30;99.90
5940;DHT22;2995;-31.998;115.906;2024-01-15T11:54:09;27.10;99.90
5940;DHT22;2995;-31.998;115.906;2024-01-15T11:56:41;27.00;99.90
5940;DHT22;2995;-31.998;115.906;2024-01-15T11:59:13;27.20;99.90
5940;DHT22;2995;-31.998;115.906;2024-01-15T12:01:46;27.30;99.90
5940;DHT22;2995;-31.998;115.906;2024-01-15T12:04:17;27.40;99.90
5940;DHT22;2995;-31.998;115.906;2024-01-15T12:06:48;27.30;99.90
5940;DHT22;2995;-31.998;115.906;2024-01-15T12:09:21;27.20;99.90
5940;DHT22;2995;-31.998;115.906;2024-01-15T12:12:01;27.20;99.90
5940;DHT22;2995;-31.998;115.906;2024-01-15T12:14:35;27.40;99.90
5940;DHT22;2995;-31.998;115.906;2024-01-15T12:17:08;27.40;99.90
5940;DHT22;2995;-31.998;115.906;2024-01-15T12:19:40;27.20;99.90
5940;DHT22;2995;-31.998;115.906;2024-01-15T12:22:11;27.10;99.90
5940;DHT22;2995;-31.998;115.906;2024-01-15T12:24:43;27.10;99.90
5940;DHT22;2995;-31.998;115.906;2024-01-15T12:27:15;27.20;99.90
5940;DHT22;2995;-31.998;115.906;2024-01-15T12:29:46;27.00;99.90
5940;DHT22;2995;-31.998;115.906;2024-01-15T12:32:20;27.00;99.90
5940;DHT22;2995;-31.998;115.906;2024-01-15T12:34:51;26.90;99.90
5940;DHT22;2995;-31.998;115.906;2024-01-15T12:37:23;27.20;99.90
5940;DHT22;2995;-31.998;115.906;2024-01-15T12:39:55;27.40;99.90
5940;DHT22;2995;-31.998;115.906;2024-01-15T12:42:27;27.40;99.90
5940;DHT22;2995;-31.998;115.906;2024-01-15T12:44:59;27.10;99.90
5940;DHT22;2995;-31.998;115.906;2024-01-15T12:47:33;27.00;99.90
5940;DHT22;2995;-31.998;115.906;2024-01-15T12:50:07;27.00;99.90
5940;DHT22;2995;-31.998;115.906;2024-01-15T12:52:40;27.20;99.90
5940;DHT22;2995;-31.998;115.906;2024-01-15T12:55:11;27.10;99.90
5940;DHT22;2995;-31.998;115.906;2024-01-15T12:57:43;26.90;99.90
5940;DHT22;2995;-31.998;115.906;2024-01-15T13:00:15;27.20;99.90
5940;DHT22;2995;-31.998;115.906;2024-01-15T13:02:48;27.20;99.90
5940;DHT22;2995;-31.998;115.906;2024-01-15T13:05:20;27.30;99.90
5940;DHT22;2995;-31.998;115.906;2024-01-15T13:07:52;27.10;99.90
5940;DHT22;2995;-31.998;115.906;2024-01-15T13:10:23;27.00;99.90
5940;DHT22;2995;-31.998;115.906;2024-01-15T13:12:57;26.80;99.90
5940;DHT22;2995;-31.998;115.906;2024-01-15T13:15:29;27.10;99.90
5940;DHT22;2995;-31.998;115.906;2024-01-15T13:18:03;27.20;99.90
5940;DHT22;2995;-31.998;115.906;2024-01-15T13:20:36;27.30;99.90
5940;DHT22;2995;-31.998;115.906;2024-01-15T13:23:07;26.90;99.90
5940;DHT22;2995;-31.998;115.906;2024-01-15T13:25:39;26.80;99.90
5940;DHT22;2995;-31.998;115.906;2024-01-15T13:28:10;27.00;99.90
5940;DHT22;2995;-31.998;115.906;2024-01-15T13:30:42;26.70;99.90
5940;DHT22;2995;-31.998;115.906;2024-01-15T13:33:16;26.80;99.90
5940;DHT22;2995;-31.998;115.906;2024-01-15T13:35:47;26.70;99.90
5940;DHT22;2995;-31.998;115.906;2024-01-15T13:38:19;26.60;99.90
5940;DHT22;2995;-31.998;115.906;2024-01-15T13:40:50;26.50;99.90
5940;DHT22;2995;-31.998;115.906;2024-01-15T13:43:25;26.40;99.90
5940;DHT22;2995;-31.998;115.906;2024-01-15T13:45:56;26.60;99.90
5940;DHT22;2995;-31.998;115.906;2024-01-15T13:48:29;26.80;99.90
5940;DHT22;2995;-31.998;115.906;2024-01-15T13:51:01;26.80;99.90
5940;DHT22;2995;-31.998;115.906;2024-01-15T13:53:32;26.80;99.90
5940;DHT22;2995;-31.998;115.906;2024-01-15T13:56:04;26.70;99.90
5940;DHT22;2995;-31.998;115.906;2024-01-15T13:58:35;26.70;99.90
5940;DHT22;2995;-31.998;115.906;2024-01-15T14:01:07;26.60;99.90
5940;DHT22;2995;-31.998;115.906;2024-01-15T14:03:40;26.30;99.90
5940;DHT22;2995;-31.998;115.906;2024-01-15T14:06:12;26.10;99.90
5940;DHT22;2995;-31.998;115.906;2024-01-15T14:08:43;26.20;99.90
5940;DHT22;2995;-31.998;115.906;2024-01-15T14:11:14;26.30;99.90
5940;DHT22;2995;-31.998;115.906;2024-01-15T14:13:45;26.10;99.90
5940;DHT22;2995;-31.998;115.906;2024-01-15T14:16:17;26.00;99.90
5940;DHT22;2995;-31.998;115.906;2024-01-15T14:18:50;26.10;99.90
5940;DHT22;2995;-31.998;115.906;2024-01-15T14:21:22;26.10;99.90
5940;DHT22;2995;-31.998;115.906;2024-01-15T14:23:53;26.10;99.90
5940;DHT22;2995;-31.998;115.906;2024-01-15T14:26:24;26.40;99.90
5940;DHT22;2995;-31.998;115.906;2024-01-15T14:28:56;26.50;99.90
5940;DHT22;2995;-31.998;115.906;2024-01-15T14:31:27;26.60;99.90
5940;DHT22;2995;-31.998;115.906;2024-01-15T14:34:00;26.30;99.90
5940;DHT22;2995;-31.998;115.906;2024-01-15T14:36:31;26.40;99.90
5940;DHT22;2995;-31.998;115.906;2024-01-15T14:39:03;26.70;99.90
5940;DHT22;2995;-31.998;115.906;2024-01-15T14:41:34;26.80;99.90
5940;DHT22;2995;-31.998;115.906;2024-01-15T14:44:05;26.80;99.90
5940;DHT22;2995;-31.998;115.906;2024-01-15T14:46:37;26.80;99.90
5940;DHT22;2995;-31.998;115.906;2024-01-15T14:49:10;26.70;99.90
5940;DHT22;2995;-31.998;115.906;2024-01-15T14:51:42;26.50;99.90
5940;DHT22;2995;-31.998;115.906;2024-01-15T14:54:15;26.60;99.90
5940;DHT22;2995;-31.998;115.906;2024-01-15T14:56:46;26.70;99.90
5940;DHT22;2995;-31.998;115.906;2024-01-15T14:59:20;26.70;99.90
5940;DHT22;2995;-31.998;115.906;2024-01-15T15:01:52;26.80;99.90
5940;DHT22;2995;-31.998;115.906;2024-01-15T15:04:26;26.70;99.90
5940;DHT22;2995;-31.998;115.906;2024-01-15T15:06:58;26.80;99.90
5940;DHT22;2995;-31.998;115.906;2024-01-15T15:09:30;26.80;99.90
5940;DHT22;2995;-31.998;115.906;2024-01-15T15:12:01;26.70;99.90
5940;DHT22;2995;-31.998;115.906;2024-01-15T15:14:33;26.80;99.90
5940;DHT22;2995;-31.998;115.906;2024-01-15T15:17:06;26.80;99.90
5940;DHT22;2995;-31.998;115.906;2024-01-15T15:19:39;26.60;99.90
5940;DHT22;2995;-31.998;115.906;2024-01-15T15:22:10;26.70;99.90
5940;DHT22;2995;-31.998;115.906;2024-01-15T15:24:42;26.70;99.90
5940;DHT22;2995;-31.998;115.906;2024-01-15T15:27:13;26.70;99.90
5940;DHT22;2995;-31.998;115.906;2024-01-15T15:29:45;26.80;99.90
5940;DHT22;2995;-31.998;115.906;2024-01-15T15:32:18;26.60;99.90
5940;DHT22;2995;-31.998;115.906;2024-01-15T15:34:51;26.70;99.90
5940;DHT22;2995;-31.998;115.906;2024-01-15T15:37:22;26.70;99.90
5940;DHT22;2995;-31.998;115.906;2024-01-15T15:39:54;26.70;99.90
5940;DHT22;2995;-31.998;115.906;2024-01-15T15:42:26;26.70;99.90
5940;DHT22;2995;-31.998;115.906;2024-01-15T15:44:57;26.40;99.90